createdAt,value
2018-06-13T00:01:16.612Z,94.90
2018-06-13T00:04:21.053Z,95.20
2018-06-13T00:07:25.431Z,95.90
2018-06-13T00:10:30.060Z,96.20
2018-06-13T00:13:34.794Z,96.00
2018-06-13T00:16:39.555Z,96.70
2018-06-13T00:19:44.401Z,97.30
2018-06-13T00:22:48.816Z,96.40
2018-06-13T00:25:53.316Z,97.10
2018-06-13T00:28:58.840Z,96.30
2018-06-13T00:32:03.652Z,96.50
2018-06-13T00:35:08.280Z,96.10
2018-06-13T00:38:14.843Z,97.00
2018-06-13T00:41:19.335Z,95.90
2018-06-13T00:44:24.188Z,95.90
2018-06-13T00:47:28.851Z,97.10
2018-06-13T00:50:35.757Z,97.30
2018-06-13T00:53:42.412Z,98.80
2018-06-13T00:56:47.943Z,98.50
2018-06-13T00:59:53.551Z,98.60
2018-06-13T01:03:04.017Z,98.20
2018-06-13T01:06:08.546Z,99.40
2018-06-13T01:09:15.463Z,99.30
2018-06-13T01:12:23.219Z,98.10
2018-06-13T01:15:34.642Z,98.80
2018-06-13T01:21:49.048Z,97.80
2018-06-13T01:25:04.175Z,97.50
2018-06-13T01:28:10.229Z,97.60
2018-06-13T01:31:15.919Z,97.30
2018-06-13T01:34:20.819Z,97.30
2018-06-13T01:41:10.889Z,96.60
2018-06-13T01:44:25.732Z,96.60
2018-06-13T01:51:00.412Z,96.20
2018-06-13T01:54:07.662Z,96.30
2018-06-13T01:57:18.786Z,96.80
2018-06-13T02:00:31.022Z,96.20
2018-06-13T02:03:42.300Z,96.50
2018-06-13T02:06:48.298Z,97.10
2018-06-13T02:09:54.115Z,96.80
2018-06-13T02:13:05.855Z,96.70
2018-06-13T02:16:11.674Z,97.00
2018-06-13T02:19:16.924Z,96.80
2018-06-13T02:22:22.409Z,97.20
2018-06-13T02:25:27.945Z,97.40
2018-06-13T02:28:34.386Z,97.90
2018-06-13T02:31:40.297Z,97.90
2018-06-13T02:34:48.366Z,98.10
2018-06-13T02:38:19.450Z,98.30
2018-06-13T02:41:37.089Z,98.30
2018-06-13T02:44:42.014Z,98.10
2018-06-13T02:47:50.820Z,98.00
2018-06-13T02:51:01.155Z,98.10
2018-06-13T02:54:17.817Z,98.20
2018-06-13T02:57:23.647Z,98.10
2018-06-13T03:00:31.292Z,98.10
2018-06-13T03:10:20.378Z,98.10
2018-06-13T03:13:40.260Z,98.70
2018-06-13T03:16:52.436Z,99.60
2018-06-13T03:20:00.819Z,98.60
2018-06-13T03:23:12.867Z,98.00
2018-06-13T03:26:23.583Z,98.20
2018-06-13T03:29:38.333Z,98.50
2018-06-13T03:32:43.914Z,98.70
2018-06-13T03:35:48.536Z,98.60
2018-06-13T03:38:53.247Z,98.10
2018-06-13T03:41:58.071Z,98.40
2018-06-13T03:45:02.826Z,98.30
2018-06-13T03:48:08.519Z,98.20
2018-06-13T03:51:26.333Z,98.50
2018-06-13T03:54:33.363Z,98.40
2018-06-13T03:57:38.748Z,98.50
2018-06-13T04:00:44.943Z,98.40
2018-06-13T04:03:51.034Z,98.60
2018-06-13T04:07:08.419Z,98.80
2018-06-13T04:10:18.122Z,99.30
2018-06-13T04:13:28.249Z,99.10
2018-06-13T04:16:44.929Z,98.90
2018-06-13T04:19:51.441Z,98.90
2018-06-13T04:30:55.807Z,99.30
2018-06-13T04:34:14.804Z,99.60
2018-06-13T04:37:20.749Z,99.20
2018-06-13T04:40:29.715Z,98.80
2018-06-13T04:43:35.327Z,98.80
2018-06-13T04:46:40.791Z,98.40
2018-06-13T04:49:50.069Z,98.40
2018-06-13T04:52:58.512Z,98.20
2018-06-13T04:56:08.194Z,98.30
2018-06-13T05:02:56.156Z,98.40
2018-06-13T05:10:52.659Z,97.50
2018-06-13T05:14:04.038Z,97.00
2018-06-13T05:17:19.033Z,97.50
2018-06-13T05:20:48.502Z,97.80
2018-06-13T05:23:57.241Z,98.00
2018-06-13T05:27:15.441Z,97.10
2018-06-13T05:37:28.643Z,97.10
2018-06-13T05:41:27.103Z,97.50
2018-06-13T05:45:01.817Z,97.20
2018-06-13T05:48:35.565Z,97.40
2018-06-13T05:52:02.011Z,98.00
2018-06-13T05:55:52.138Z,97.10
2018-06-13T05:58:59.601Z,97.70
2018-06-13T06:11:37.333Z,98.10
2018-06-13T06:18:28.666Z,98.60
2018-06-13T06:22:14.211Z,97.90
2018-06-13T06:30:08.549Z,97.70
2018-06-13T06:33:40.894Z,97.90
2018-06-13T06:37:27.087Z,97.60
2018-06-13T06:40:49.130Z,97.80
2018-06-13T06:51:18.652Z,97.00
2018-06-13T06:54:54.687Z,97.80
2018-06-13T06:58:09.654Z,97.90
2018-06-13T07:01:26.532Z,97.60
2018-06-13T07:05:02.192Z,98.10
2018-06-13T07:08:39.249Z,98.50
2018-06-13T07:12:16.983Z,99.70
2018-06-13T07:15:30.740Z,99.90
2018-06-13T07:22:13.961Z,99.90
2018-06-13T07:25:21.733Z,99.90
2018-06-13T07:28:47.633Z,99.90
2018-06-13T07:32:06.776Z,99.90
2018-06-13T07:35:23.338Z,99.90
2018-06-13T07:38:33.491Z,97.60
2018-06-13T07:41:43.494Z,97.90
2018-06-13T07:45:15.815Z,98.60
2018-06-13T07:52:22.943Z,97.70
2018-06-13T07:55:53.550Z,96.10
2018-06-13T08:03:04.098Z,95.70
2018-06-13T08:09:47.127Z,94.70
2018-06-13T08:13:02.869Z,93.10
2018-06-13T08:16:22.191Z,92.70
2018-06-13T08:20:00.827Z,92.50
2018-06-13T08:23:34.723Z,92.10
2018-06-13T08:26:41.703Z,88.50
2018-06-13T08:42:16.844Z,86.10
2018-06-13T08:45:38.647Z,86.20
2018-06-13T09:02:49.645Z,90.10
2018-06-13T09:09:27.891Z,88.20
2018-06-13T09:12:45.404Z,87.20
2018-06-13T09:19:57.708Z,87.30
2018-06-13T09:23:27.690Z,87.90
2018-06-13T09:26:46.092Z,86.80
2018-06-13T09:30:03.757Z,84.80
2018-06-13T09:40:11.056Z,87.10
2018-06-13T09:43:20.596Z,86.50
2018-06-13T09:46:30.506Z,85.90
2018-06-13T09:49:40.389Z,87.10
2018-06-13T09:53:01.108Z,86.50
2018-06-13T09:56:14.360Z,86.20
2018-06-13T09:59:23.950Z,86.30
2018-06-13T10:02:50.253Z,84.30
2018-06-13T10:05:57.798Z,85.10
2018-06-13T10:09:26.709Z,85.00
2018-06-13T10:12:47.510Z,89.00
2018-06-13T10:16:08.482Z,84.10
2018-06-13T10:19:28.951Z,83.00
2018-06-13T10:26:42.674Z,81.90
2018-06-13T10:35:48.448Z,83.10
2018-06-13T10:39:02.396Z,82.30
2018-06-13T10:42:08.183Z,80.40
2018-06-13T10:45:13.383Z,80.70
2018-06-13T10:48:26.109Z,80.50
2018-06-13T10:51:30.897Z,82.60
2018-06-13T10:54:35.712Z,81.80
2018-06-13T10:57:40.437Z,82.60
2018-06-13T11:04:55.733Z,83.70
2018-06-13T11:08:00.627Z,83.80
2018-06-13T11:11:06.154Z,83.20
2018-06-13T11:14:11.003Z,83.90
2018-06-13T11:20:29.789Z,83.60
2018-06-13T11:23:34.542Z,84.80
2018-06-13T11:26:39.355Z,84.60
2018-06-13T11:29:44.512Z,84.00
2018-06-13T11:33:01.986Z,83.90
2018-06-13T11:36:06.912Z,83.70
2018-06-13T11:39:12.054Z,84.70
2018-06-13T11:42:20.802Z,83.70
2018-06-13T11:45:26.363Z,83.60
2018-06-13T11:48:32.106Z,81.70
2018-06-13T11:51:37.739Z,81.90
2018-06-13T11:54:42.403Z,83.70
2018-06-13T11:57:57.356Z,83.80
2018-06-13T12:01:02.248Z,80.50
2018-06-13T12:04:11.576Z,80.00
2018-06-13T12:07:24.890Z,78.60
2018-06-13T12:10:30.895Z,78.90
2018-06-13T12:13:35.754Z,77.10
2018-06-13T12:16:40.752Z,78.50
2018-06-13T12:23:03.497Z,77.30
2018-06-13T12:26:08.432Z,78.00
2018-06-13T12:29:13.194Z,77.80
2018-06-13T12:32:29.296Z,79.10
2018-06-13T12:35:34.117Z,78.60
2018-06-13T12:38:39.126Z,78.30
2018-06-13T12:41:43.991Z,80.00
2018-06-13T12:44:54.480Z,80.30
2018-06-13T12:47:59.453Z,78.30
2018-06-13T12:51:05.554Z,78.50
2018-06-13T12:54:11.038Z,77.00
2018-06-13T12:57:21.128Z,77.60
2018-06-13T13:00:27.459Z,77.90
2018-06-13T13:03:32.352Z,79.70
2018-06-13T13:06:37.318Z,82.00
2018-06-13T13:09:42.772Z,80.10
2018-06-13T13:12:56.937Z,81.50
2018-06-13T13:16:01.720Z,82.70
2018-06-13T13:19:06.612Z,83.30
2018-06-13T13:22:11.396Z,84.10
2018-06-13T13:25:28.641Z,83.50
2018-06-13T13:28:33.590Z,83.00
2018-06-13T13:31:38.345Z,81.50
2018-06-13T13:34:43.169Z,79.70
2018-06-13T13:38:06.564Z,80.30
2018-06-13T13:41:19.229Z,79.40
2018-06-13T13:44:25.018Z,79.10
2018-06-13T13:47:30.017Z,78.80
2018-06-13T13:50:34.769Z,76.40
2018-06-13T13:53:39.503Z,77.30
2018-06-13T13:56:44.305Z,78.70
2018-06-13T13:59:56.720Z,78.30
2018-06-13T14:03:01.459Z,77.10
2018-06-13T14:06:06.408Z,77.50
2018-06-13T14:09:12.176Z,78.60
2018-06-13T14:12:20.821Z,79.70
2018-06-13T14:15:26.854Z,81.40
2018-06-13T14:18:31.560Z,82.90
2018-06-13T14:21:36.209Z,82.30
2018-06-13T14:24:40.949Z,82.80
2018-06-13T14:27:45.571Z,83.90
2018-06-13T14:30:51.865Z,83.30
2018-06-13T14:34:02.756Z,82.00
2018-06-13T14:37:07.990Z,82.50
2018-06-13T14:40:12.800Z,81.90
2018-06-13T14:43:18.590Z,80.90
2018-06-13T14:46:24.416Z,79.40
2018-06-13T14:49:29.080Z,78.80
2018-06-13T14:52:33.742Z,79.20
2018-06-13T14:55:45.601Z,80.80
2018-06-13T14:58:52.088Z,79.50
2018-06-13T15:01:57.517Z,79.60
2018-06-13T15:05:02.153Z,81.80
2018-06-13T15:08:06.809Z,82.30
2018-06-13T15:11:11.406Z,83.50
2018-06-13T15:14:20.659Z,84.20
2018-06-13T15:17:30.110Z,86.00
2018-06-13T15:20:34.965Z,88.60
2018-06-13T15:23:39.658Z,89.80
2018-06-13T15:26:44.470Z,90.00
2018-06-13T15:33:03.134Z,90.00
2018-06-13T15:36:07.951Z,90.30
2018-06-13T15:39:14.596Z,90.30
2018-06-13T15:42:25.473Z,90.10
2018-06-13T15:45:30.285Z,89.50
2018-06-13T15:48:35.118Z,89.80
2018-06-13T15:51:39.914Z,89.30
2018-06-13T15:54:44.696Z,90.10
2018-06-13T15:57:58.453Z,89.80
2018-06-13T16:01:08.800Z,90.00
2018-06-13T16:04:13.656Z,89.50
2018-06-13T16:07:26.864Z,88.70
2018-06-13T16:10:31.720Z,88.60
2018-06-13T16:13:36.404Z,87.70
2018-06-13T16:16:41.574Z,88.10
2018-06-13T16:19:48.143Z,87.50
2018-06-13T16:23:06.519Z,87.90
2018-06-13T16:26:11.184Z,87.00
2018-06-13T16:29:18.786Z,87.00
2018-06-13T16:35:33.734Z,85.30
2018-06-13T16:38:38.605Z,84.60
2018-06-13T16:41:43.612Z,84.50
2018-06-13T16:44:51.961Z,85.20
2018-06-13T16:47:56.728Z,84.00
2018-06-13T16:51:12.412Z,85.20
2018-06-13T16:54:26.922Z,84.90
2018-06-13T16:57:31.697Z,85.10
2018-06-13T17:00:36.565Z,85.10
2018-06-13T17:03:41.431Z,85.10
2018-06-13T17:06:48.126Z,84.60
2018-06-13T17:10:00.138Z,84.60
2018-06-13T17:13:04.949Z,85.00
2018-06-13T17:16:09.905Z,85.10
2018-06-13T17:19:19.479Z,85.60
2018-06-13T17:22:30.932Z,85.70
2018-06-13T17:25:35.669Z,85.60
2018-06-13T17:28:40.401Z,85.30
2018-06-13T17:31:47.086Z,87.20
2018-06-13T17:35:04.846Z,87.30
2018-06-13T17:38:17.945Z,87.20
2018-06-13T17:41:24.270Z,87.30
2018-06-13T17:44:28.864Z,87.90
2018-06-13T17:47:33.496Z,88.40
2018-06-13T17:50:38.163Z,88.30
2018-06-13T17:53:54.668Z,88.80
2018-06-13T17:56:59.366Z,88.60
2018-06-13T18:00:04.253Z,90.00
2018-06-13T18:03:09.292Z,89.50
2018-06-13T18:06:14.079Z,89.90
2018-06-13T18:09:26.869Z,89.40
2018-06-13T18:12:31.580Z,90.10
2018-06-13T18:15:36.317Z,90.10
2018-06-13T18:18:54.977Z,90.00
2018-06-13T18:22:01.249Z,89.20
2018-06-13T18:25:05.953Z,89.00
2018-06-13T18:28:10.676Z,89.70
2018-06-13T18:31:15.567Z,89.30
2018-06-13T18:34:35.215Z,89.30
2018-06-13T18:37:40.089Z,89.10
2018-06-13T18:40:44.815Z,89.50
2018-06-13T18:43:49.824Z,89.30
2018-06-13T18:46:57.557Z,89.60
2018-06-13T18:50:02.569Z,89.80
2018-06-13T18:53:07.794Z,90.00
2018-06-13T18:56:12.647Z,90.30
2018-06-13T18:59:21.718Z,90.40
2018-06-13T19:02:28.787Z,90.80
2018-06-13T19:05:33.667Z,90.40
2018-06-13T19:08:38.406Z,90.80
2018-06-13T19:11:43.188Z,90.60
2018-06-13T19:14:47.929Z,90.70
2018-06-13T19:17:56.792Z,90.70
2018-06-13T19:21:02.660Z,90.70
2018-06-13T19:24:07.360Z,90.90
2018-06-13T19:27:12.854Z,90.80
2018-06-13T19:33:37.260Z,91.40
2018-06-13T19:36:42.247Z,91.20
2018-06-13T19:39:48.913Z,91.20
2018-06-13T19:43:03.576Z,91.20
2018-06-13T19:46:12.295Z,91.00
2018-06-13T19:49:20.704Z,91.10
2018-06-13T19:52:32.608Z,92.50
2018-06-13T19:55:42.318Z,92.10
2018-06-13T19:58:56.691Z,93.10
2018-06-13T20:02:01.408Z,91.90
2018-06-13T20:05:11.235Z,91.60
2018-06-13T20:08:17.525Z,92.90
2018-06-13T20:11:28.202Z,93.10
2018-06-13T20:14:38.125Z,92.10
2018-06-13T20:17:50.254Z,92.50
2018-06-13T20:21:04.096Z,92.40
2018-06-13T20:24:08.705Z,92.60
2018-06-13T20:27:23.287Z,93.20
2018-06-13T20:30:42.971Z,93.30
2018-06-13T20:33:51.499Z,93.30
2018-06-13T20:37:01.010Z,93.90
2018-06-13T20:40:05.822Z,93.60
2018-06-13T20:43:10.670Z,94.30
2018-06-13T20:46:15.422Z,94.80
2018-06-13T20:49:22.388Z,94.50
2018-06-13T20:52:28.051Z,93.20
2018-06-13T20:55:32.737Z,93.30
2018-06-13T20:58:37.322Z,93.60
2018-06-13T21:01:42.121Z,93.70
2018-06-13T21:04:48.654Z,94.00
2018-06-13T21:07:58.132Z,94.60
2018-06-13T21:11:02.939Z,94.80
2018-06-13T21:14:07.509Z,94.30
2018-06-13T21:17:15.015Z,94.40
2018-06-13T21:20:20.068Z,94.80
2018-06-13T21:23:27.930Z,94.40
2018-06-13T21:26:32.806Z,94.30
2018-06-13T21:29:37.389Z,95.20
2018-06-13T21:32:42.145Z,94.40
2018-06-13T21:35:49.200Z,94.30
2018-06-13T21:38:53.970Z,94.50
2018-06-13T21:41:58.536Z,94.60
2018-06-13T21:45:03.273Z,95.50
2018-06-13T21:48:07.947Z,95.20
2018-06-13T21:51:12.647Z,95.60
2018-06-13T21:54:18.705Z,96.00
2018-06-13T21:57:27.440Z,95.30
2018-06-13T22:00:32.125Z,95.10
2018-06-13T22:03:36.804Z,96.50
2018-06-13T22:06:41.405Z,96.50
2018-06-13T22:09:50.018Z,96.20
2018-06-13T22:12:59.873Z,96.20
2018-06-13T22:16:04.527Z,96.70
2018-06-13T22:19:09.175Z,96.90
2018-06-13T22:22:13.812Z,96.70
2018-06-13T22:25:22.581Z,96.30
2018-06-13T22:28:31.239Z,96.30
2018-06-13T22:31:35.944Z,96.60
2018-06-13T22:34:40.642Z,96.40
2018-06-13T22:37:45.578Z,96.50
2018-06-13T22:40:53.688Z,95.70
2018-06-13T22:47:02.949Z,95.90
2018-06-13T22:50:10.855Z,96.30
2018-06-13T22:53:17.279Z,97.40
2018-06-13T22:56:26.803Z,95.80
2018-06-13T22:59:31.455Z,95.70
2018-06-13T23:02:36.217Z,95.70
2018-06-13T23:05:40.822Z,96.90
2018-06-13T23:08:52.607Z,95.90
2018-06-13T23:12:00.656Z,96.60
2018-06-13T23:15:10.436Z,95.90
2018-06-13T23:18:17.629Z,96.90
2018-06-13T23:21:29.343Z,96.70
2018-06-13T23:24:43.905Z,96.10
2018-06-13T23:27:56.580Z,96.60
2018-06-13T23:31:04.427Z,96.60
2018-06-13T23:34:09.084Z,96.40
2018-06-13T23:37:18.081Z,97.40
2018-06-13T23:40:27.277Z,97.10
2018-06-13T23:43:34.896Z,97.30
2018-06-13T23:46:39.895Z,96.50
2018-06-13T23:50:07.581Z,96.20
2018-06-13T23:53:12.897Z,96.90
2018-06-13T23:56:27.393Z,97.40
2018-06-13T23:59:32.708Z,97.00
